Time;durP1;ratioP1;P1;durP2;ratioP2;P2;SDS_P1;SDS_P2;PMS_P1;PMS_P2;Temp;Humidity;BMP_temperature;BMP_pressure;BME280_temperature;BME280_humidity;BME280_pressure;Samples;Min_cycle;Max_cycle;Signal;HPM_P1;HPM_P2
2022/11/16 00:02:02;;;;;;;41.97;19.38;;;;;;;;;;5011353;28;20420;-81
2022/11/16 00:04:28;;;;;;;39.10;19.33;;;;;;;;;;5014882;28;20041;-81
2022/11/16 00:06:53;;;;;;;39.22;18.60;;;;;;;;;;5008712;28;20536;-81
2022/11/16 00:09:21;;;;;;;40.17;17.88;;;;;;;;;;5030745;28;20055;-81
2022/11/16 00:11:51;;;;;;;35.95;17.33;;;;;;;;;;5026931;28;20042;-82
2022/11/16 00:14:18;;;;;;;42.33;19.95;;;;;;;;;;5029633;28;20392;-82
2022/11/16 00:16:43;;;;;;;40.95;19.63;;;;;;;;;;5033389;28;20788;-81
2022/11/16 00:19:09;;;;;;;36.65;17.70;;;;;;;;;;5010392;28;20044;-82
2022/11/16 00:21:35;;;;;;;40.70;18.75;;;;;;;;;;5011874;28;20188;-82
2022/11/16 00:24:01;;;;;;;39.95;18.25;;;;;;;;;;5025954;28;20029;-81
2022/11/16 00:26:26;;;;;;;37.70;18.65;;;;;;;;;;5018940;28;20405;-82
2022/11/16 00:28:52;;;;;;;43.17;20.20;;;;;;;;;;5031752;28;20038;-82
2022/11/16 00:31:18;;;;;;;44.35;19.80;;;;;;;;;;5014227;28;20036;-81
2022/11/16 00:33:44;;;;;;;38.17;17.38;;;;;;;;;;5013025;28;20030;-82
2022/11/16 00:36:11;;;;;;;38.70;19.90;;;;;;;;;;5012363;28;20029;-81
2022/11/16 00:38:36;;;;;;;40.08;18.98;;;;;;;;;;5015627;28;20037;-81
2022/11/16 00:41:02;;;;;;;39.60;18.10;;;;;;;;;;5012971;28;20033;-81
2022/11/16 00:43:28;;;;;;;37.17;17.52;;;;;;;;;;5016185;28;20040;-81
2022/11/16 00:45:53;;;;;;;40.17;18.55;;;;;;;;;;5024593;28;20472;-82
2022/11/16 00:48:19;;;;;;;36.13;17.27;;;;;;;;;;5000659;28;20405;-81
2022/11/16 00:50:45;;;;;;;38.05;17.38;;;;;;;;;;5010344;28;20032;-82
2022/11/16 00:53:15;;;;;;;33.25;16.90;;;;;;;;;;5013985;28;20037;-81
2022/11/16 00:55:42;;;;;;;38.55;18.73;;;;;;;;;;5022753;28;20053;-81
2022/11/16 00:58:08;;;;;;;42.15;18.25;;;;;;;;;;5025670;28;20038;-81
2022/11/16 01:00:33;;;;;;;37.95;17.83;;;;;;;;;;5001741;28;20045;-81
2022/11/16 01:02:59;;;;;;;38.90;17.75;;;;;;;;;;5014002;28;20147;-82
2022/11/16 01:05:24;;;;;;;38.90;18.13;;;;;;;;;;5014718;28;20147;-81
2022/11/16 01:07:50;;;;;;;40.83;17.98;;;;;;;;;;5029578;28;20540;-81
2022/11/16 01:10:19;;;;;;;37.67;16.88;;;;;;;;;;5013762;28;20522;-82
2022/11/16 01:12:45;;;;;;;36.38;17.30;;;;;;;;;;5000837;28;20163;-81
2022/11/16 01:15:11;;;;;;;37.45;18.00;;;;;;;;;;5011816;28;20037;-82
2022/11/16 01:17:38;;;;;;;36.33;17.23;;;;;;;;;;5011466;28;20044;-82
2022/11/16 01:20:10;;;;;;;35.08;16.77;;;;;;;;;;5028973;28;20044;-83
2022/11/16 01:22:36;;;;;;;37.75;17.73;;;;;;;;;;5009702;28;20033;-81
2022/11/16 01:25:01;;;;;;;38.08;17.48;;;;;;;;;;5013623;28;20404;-82
2022/11/16 01:27:27;;;;;;;37.97;17.40;;;;;;;;;;5010265;28;20037;-81
2022/11/16 01:29:53;;;;;;;36.22;17.73;;;;;;;;;;5000466;28;20034;-81
2022/11/16 01:32:21;;;;;;;39.65;18.63;;;;;;;;;;5011289;28;20036;-81
2022/11/16 01:34:47;;;;;;;38.15;18.33;;;;;;;;;;4998565;28;20029;-82
2022/11/16 01:37:12;;;;;;;41.25;17.63;;;;;;;;;;5006941;28;20030;-83
2022/11/16 01:39:38;;;;;;;36.35;16.88;;;;;;;;;;5011944;28;20034;-82
2022/11/16 01:42:03;;;;;;;38.10;17.73;;;;;;;;;;5011780;28;20030;-82
2022/11/16 01:44:31;;;;;;;35.28;17.42;;;;;;;;;;5012383;28;20037;-82
2022/11/16 01:47:10;;;;;;;35.92;16.50;;;;;;;;;;5025511;28;20037;-81
2022/11/16 01:49:49;;;;;;;40.83;17.30;;;;;;;;;;5012618;28;20040;-81
2022/11/16 01:52:17;;;;;;;39.67;17.42;;;;;;;;;;5015406;28;20500;-83
2022/11/16 01:54:45;;;;;;;37.90;17.60;;;;;;;;;;5011976;28;20033;-81
2022/11/16 01:57:17;;;;;;;36.70;17.02;;;;;;;;;;5011988;28;20080;-81
2022/11/16 01:59:44;;;;;;;37.42;17.15;;;;;;;;;;5007767;28;20441;-82
2022/11/16 02:02:10;;;;;;;37.08;17.95;;;;;;;;;;5006526;28;20370;-81
2022/11/16 02:04:35;;;;;;;42.63;18.08;;;;;;;;;;5002578;28;20044;-82
2022/11/16 02:07:14;;;;;;;36.20;16.15;;;;;;;;;;5012080;28;20032;-81
2022/11/16 02:10:09;;;;;;;38.00;16.77;;;;;;;;;;4995153;28;20374;-81
2022/11/16 02:12:46;;;;;;;38.70;15.82;;;;;;;;;;5022788;28;20071;-80
2022/11/16 02:15:24;;;;;;;37.08;17.42;;;;;;;;;;4995458;28;20030;-82
2022/11/16 02:18:33;;;;;;;35.47;16.55;;;;;;;;;;5041440;28;20045;-81
2022/11/16 02:21:09;;;;;;;36.63;16.85;;;;;;;;;;5012469;28;20044;-82
2022/11/16 02:23:43;;;;;;;39.83;17.45;;;;;;;;;;5013222;28;20052;-81
2022/11/16 02:26:20;;;;;;;34.95;15.68;;;;;;;;;;5040603;28;20052;-81
2022/11/16 02:29:20;;;;;;;36.50;16.23;;;;;;;;;;5007716;28;20511;-82
2022/11/16 02:31:50;;;;;;;37.22;15.65;;;;;;;;;;4990680;28;20030;-81
2022/11/16 02:34:16;;;;;;;37.13;15.65;;;;;;;;;;5011433;28;20044;-82
2022/11/16 02:36:44;;;;;;;39.63;17.27;;;;;;;;;;5007669;28;20029;-82
2022/11/16 02:39:13;;;;;;;33.35;14.68;;;;;;;;;;5011747;28;20435;-81
2022/11/16 02:41:41;;;;;;;35.63;15.50;;;;;;;;;;5012739;28;20039;-82
2022/11/16 02:44:11;;;;;;;37.45;15.63;;;;;;;;;;5011833;28;20034;-82
2022/11/16 02:46:38;;;;;;;38.38;15.48;;;;;;;;;;5012923;28;20504;-82
2022/11/16 02:49:08;;;;;;;40.37;17.53;;;;;;;;;;5015478;28;20040;-82
2022/11/16 02:51:35;;;;;;;34.90;15.73;;;;;;;;;;5009839;28;20043;-81
2022/11/16 02:54:10;;;;;;;35.60;14.63;;;;;;;;;;5018952;28;20044;-81
2022/11/16 02:56:40;;;;;;;35.30;15.50;;;;;;;;;;5015967;28;20040;-81
2022/11/16 02:59:08;;;;;;;37.35;15.68;;;;;;;;;;5045222;28;20060;-82
2022/11/16 03:01:37;;;;;;;40.10;17.38;;;;;;;;;;5016668;28;20223;-81
2022/11/16 03:04:08;;;;;;;37.13;16.50;;;;;;;;;;5014730;28;20057;-81
2022/11/16 03:06:38;;;;;;;36.30;15.90;;;;;;;;;;5019870;28;20116;-81
2022/11/16 03:09:07;;;;;;;36.90;16.15;;;;;;;;;;5015373;28;20460;-81
2022/11/16 03:14:22;;;;;;;34.97;15.60;;;;;;;;;;5010820;28;20068;-81
2022/11/16 03:16:52;;;;;;;39.17;15.80;;;;;;;;;;5005805;28;20437;-81
2022/11/16 03:19:25;;;;;;;38.97;16.33;;;;;;;;;;4997222;28;20038;-82
2022/11/16 03:22:03;;;;;;;36.40;16.13;;;;;;;;;;4994405;28;20034;-82
2022/11/16 03:24:28;;;;;;;35.55;15.98;;;;;;;;;;4983869;28;20057;-81
2022/11/16 03:27:12;;;;;;;40.30;17.38;;;;;;;;;;5013386;28;20459;-81
2022/11/16 03:29:57;;;;;;;37.65;15.82;;;;;;;;;;5044452;28;20434;-81
2022/11/16 03:32:29;;;;;;;36.78;16.17;;;;;;;;;;5010373;28;20072;-81
2022/11/16 03:35:07;;;;;;;37.58;16.45;;;;;;;;;;4993656;28;20037;-82
2022/11/16 03:37:33;;;;;;;34.90;15.57;;;;;;;;;;5025843;28;20037;-81
2022/11/16 03:40:00;;;;;;;33.80;15.32;;;;;;;;;;5032078;28;20052;-82
2022/11/16 03:42:26;;;;;;;38.57;16.97;;;;;;;;;;5013654;28;20098;-81
2022/11/16 03:44:52;;;;;;;34.03;15.23;;;;;;;;;;5000759;28;20033;-81
2022/11/16 03:47:18;;;;;;;37.40;16.92;;;;;;;;;;5032556;28;20524;-81
2022/11/16 03:49:46;;;;;;;38.75;16.38;;;;;;;;;;5013475;28;20030;-81
2022/11/16 03:52:13;;;;;;;39.92;16.90;;;;;;;;;;5015314;28;20492;-81
2022/11/16 03:54:39;;;;;;;37.65;15.68;;;;;;;;;;5014606;28;20033;-81
2022/11/16 03:57:04;;;;;;;38.38;16.33;;;;;;;;;;5010315;28;20699;-81
2022/11/16 03:59:29;;;;;;;41.83;17.95;;;;;;;;;;5030051;28;20038;-81
2022/11/16 04:01:55;;;;;;;40.92;17.13;;;;;;;;;;5012849;28;20064;-81
2022/11/16 04:26:12;;;;;;;42.38;19.45;;;;;;;;;;5028116;28;20040;-80
2022/11/16 04:28:38;;;;;;;47.45;20.65;;;;;;;;;;5029785;28;20033;-80
2022/11/16 04:39:20;;;;;;;50.60;22.10;;;;;;;;;;5031073;28;20064;-81
2022/11/16 04:47:17;;;;;;;46.22;21.40;;;;;;;;;;5025306;28;20036;-85
2022/11/16 04:49:42;;;;;;;51.25;22.38;;;;;;;;;;5015788;28;20037;-86
2022/11/16 04:52:08;;;;;;;55.70;23.10;;;;;;;;;;5028470;28;20029;-85
2022/11/16 04:54:33;;;;;;;56.22;23.52;;;;;;;;;;5010409;28;20567;-84
2022/11/16 04:56:58;;;;;;;55.33;22.20;;;;;;;;;;5013789;28;20107;-84
2022/11/16 04:59:24;;;;;;;62.55;25.30;;;;;;;;;;5028738;28;20037;-85
2022/11/16 05:02:07;;;;;;;63.67;24.67;;;;;;;;;;5011599;28;20029;-85
2022/11/16 05:04:37;;;;;;;61.50;22.67;;;;;;;;;;5029026;28;20467;-86
2022/11/16 05:07:02;;;;;;;50.78;22.02;;;;;;;;;;5011195;28;20021;-86
2022/11/16 05:09:28;;;;;;;58.75;22.80;;;;;;;;;;5031157;28;20041;-86
2022/11/16 05:11:53;;;;;;;56.88;22.00;;;;;;;;;;5026139;28;20059;-85
2022/11/16 05:14:19;;;;;;;54.15;22.17;;;;;;;;;;5012561;28;20073;-86
2022/11/16 05:16:44;;;;;;;55.75;21.92;;;;;;;;;;5011629;28;20052;-88
2022/11/16 05:21:53;;;;;;;65.10;22.33;;;;;;;;;;5026294;28;20031;-88
2022/11/16 05:24:34;;;;;;;68.28;25.25;;;;;;;;;;5027105;28;20041;-86
2022/11/16 05:27:04;;;;;;;72.05;26.45;;;;;;;;;;5012655;28;20441;-86
2022/11/16 05:29:29;;;;;;;68.55;25.15;;;;;;;;;;5027533;28;20057;-87
2022/11/16 05:31:55;;;;;;;65.22;23.27;;;;;;;;;;5005458;28;20117;-87
2022/11/16 05:34:20;;;;;;;57.33;22.08;;;;;;;;;;5027830;28;20086;-81
2022/11/16 05:36:46;;;;;;;63.90;21.45;;;;;;;;;;5006802;28;20025;-80
2022/11/16 05:39:11;;;;;;;62.72;23.02;;;;;;;;;;5015059;28;20043;-81
2022/11/16 05:41:39;;;;;;;67.53;24.58;;;;;;;;;;5004486;28;20424;-80
2022/11/16 05:44:05;;;;;;;65.63;23.30;;;;;;;;;;5010011;28;20038;-81
2022/11/16 05:46:30;;;;;;;65.85;22.63;;;;;;;;;;5011557;28;20029;-80
2022/11/16 05:48:55;;;;;;;66.93;23.38;;;;;;;;;;5011062;28;20795;-84
2022/11/16 05:51:21;;;;;;;64.90;22.33;;;;;;;;;;5012895;28;20044;-82
2022/11/16 05:53:48;;;;;;;65.15;22.67;;;;;;;;;;5008445;28;20037;-80
2022/11/16 05:56:14;;;;;;;70.85;22.45;;;;;;;;;;5011040;28;20033;-81
2022/11/16 05:58:43;;;;;;;64.28;22.42;;;;;;;;;;5027532;28;20048;-81
2022/11/16 06:01:08;;;;;;;61.15;21.85;;;;;;;;;;5011588;28;20057;-82
2022/11/16 06:03:35;;;;;;;56.70;22.20;;;;;;;;;;5029288;28;20566;-82
2022/11/16 06:06:01;;;;;;;65.97;22.15;;;;;;;;;;5009304;28;20037;-80
2022/11/16 06:08:27;;;;;;;57.63;21.75;;;;;;;;;;4999870;28;20570;-81
2022/11/16 06:10:53;;;;;;;76.28;25.30;;;;;;;;;;5011758;28;20426;-82
2022/11/16 06:13:18;;;;;;;66.72;24.13;;;;;;;;;;5006433;28;20033;-81
2022/11/16 06:15:44;;;;;;;62.10;22.88;;;;;;;;;;5023406;28;20057;-81
2022/11/16 06:18:09;;;;;;;69.22;23.70;;;;;;;;;;5011553;28;20037;-81
2022/11/16 06:20:37;;;;;;;62.33;21.60;;;;;;;;;;5012456;28;20041;-81
2022/11/16 06:23:02;;;;;;;65.55;21.50;;;;;;;;;;5028132;28;20033;-81
2022/11/16 06:25:29;;;;;;;64.72;23.40;;;;;;;;;;5013205;28;20044;-87
2022/11/16 06:27:55;;;;;;;63.15;22.05;;;;;;;;;;5029925;28;20082;-89
2022/11/16 06:30:20;;;;;;;66.93;22.45;;;;;;;;;;5009770;28;20501;-80
2022/11/16 06:32:46;;;;;;;64.50;21.88;;;;;;;;;;5028463;28;20052;-81
2022/11/16 06:35:11;;;;;;;65.38;22.35;;;;;;;;;;5015258;28;20037;-81
2022/11/16 06:37:39;;;;;;;56.55;22.05;;;;;;;;;;5025764;28;20116;-82
2022/11/16 06:40:05;;;;;;;64.85;23.13;;;;;;;;;;5011467;28;20040;-81
2022/11/16 06:42:31;;;;;;;58.35;22.52;;;;;;;;;;4997672;28;20061;-81
2022/11/16 06:44:56;;;;;;;70.13;23.02;;;;;;;;;;5014419;28;20088;-80
2022/11/16 06:47:22;;;;;;;56.97;22.25;;;;;;;;;;5010454;28;20392;-81
2022/11/16 06:50:07;;;;;;;65.07;21.85;;;;;;;;;;5008385;28;20084;-81
2022/11/16 06:52:33;;;;;;;62.03;21.48;;;;;;;;;;4948103;28;20038;-81
2022/11/16 06:54:58;;;;;;;66.07;21.27;;;;;;;;;;4911889;28;20607;-81
2022/11/16 06:57:23;;;;;;;66.40;21.95;;;;;;;;;;4915522;28;20122;-82
2022/11/16 06:59:49;;;;;;;61.45;21.73;;;;;;;;;;4926958;28;20046;-81
2022/11/16 07:02:14;;;;;;;65.40;23.55;;;;;;;;;;4916884;28;20043;-82
2022/11/16 07:04:40;;;;;;;65.95;23.40;;;;;;;;;;4913756;29;20039;-81
2022/11/16 07:07:05;;;;;;;70.90;23.25;;;;;;;;;;4924175;28;20507;-82
2022/11/16 07:09:30;;;;;;;70.60;22.45;;;;;;;;;;4926814;28;20150;-82
2022/11/16 07:11:56;;;;;;;73.25;23.45;;;;;;;;;;4914336;28;20050;-82
2022/11/16 07:14:21;;;;;;;72.68;24.15;;;;;;;;;;4930272;28;20055;-82
2022/11/16 07:16:47;;;;;;;74.72;22.70;;;;;;;;;;4927611;28;20079;-81
2022/11/16 07:19:12;;;;;;;67.53;22.17;;;;;;;;;;4938405;28;20058;-82
2022/11/16 07:21:38;;;;;;;75.80;24.00;;;;;;;;;;4915727;28;20073;-81
2022/11/16 07:24:03;;;;;;;68.20;22.85;;;;;;;;;;4952284;28;20098;-81
2022/11/16 07:26:34;;;;;;;72.18;23.05;;;;;;;;;;4936568;28;20090;-81
2022/11/16 07:29:00;;;;;;;71.82;24.98;;;;;;;;;;4931705;28;20044;-80
2022/11/16 07:31:26;;;;;;;72.22;22.92;;;;;;;;;;5014675;28;20041;-81
2022/11/16 07:33:52;;;;;;;78.85;24.35;;;;;;;;;;4999169;28;20034;-81
2022/11/16 07:36:17;;;;;;;75.40;22.63;;;;;;;;;;5016636;28;20037;-81
2022/11/16 07:38:43;;;;;;;78.07;24.80;;;;;;;;;;5029009;28;20043;-81
2022/11/16 07:41:13;;;;;;;80.57;24.80;;;;;;;;;;5014617;28;20124;-81
2022/11/16 07:43:41;;;;;;;72.63;24.33;;;;;;;;;;5014372;28;20037;-81
2022/11/16 07:46:12;;;;;;;78.10;24.27;;;;;;;;;;5010428;28;20029;-81
2022/11/16 07:48:38;;;;;;;88.88;24.92;;;;;;;;;;5012277;28;20040;-80
2022/11/16 07:51:09;;;;;;;81.25;24.25;;;;;;;;;;5015213;28;20033;-81
2022/11/16 07:53:34;;;;;;;75.20;23.52;;;;;;;;;;5014424;28;20033;-80
2022/11/16 07:56:01;;;;;;;75.43;23.23;;;;;;;;;;5010692;28;20371;-82
2022/11/16 07:58:27;;;;;;;82.20;25.15;;;;;;;;;;5013354;28;20052;-81
2022/11/16 08:00:53;;;;;;;76.78;23.23;;;;;;;;;;5015627;28;20041;-81
2022/11/16 08:03:18;;;;;;;86.78;23.88;;;;;;;;;;5031521;28;20522;-83
2022/11/16 08:05:44;;;;;;;74.55;23.00;;;;;;;;;;5019351;28;20033;-81
2022/11/16 08:08:10;;;;;;;76.45;22.80;;;;;;;;;;5014328;28;20029;-81
2022/11/16 08:10:35;;;;;;;69.25;22.50;;;;;;;;;;5029511;28;20095;-82
2022/11/16 08:13:01;;;;;;;68.25;22.00;;;;;;;;;;5014370;28;20512;-81
2022/11/16 08:15:27;;;;;;;81.72;25.38;;;;;;;;;;5013806;28;20049;-82
2022/11/16 08:17:52;;;;;;;85.05;24.17;;;;;;;;;;5029943;28;20044;-81
2022/11/16 08:20:17;;;;;;;69.15;22.63;;;;;;;;;;5014164;28;20040;-81
2022/11/16 08:22:44;;;;;;;70.30;22.67;;;;;;;;;;5016579;28;20048;-81
2022/11/16 08:25:12;;;;;;;80.00;23.20;;;;;;;;;;5027783;28;20033;-81
2022/11/16 08:27:37;;;;;;;84.78;24.13;;;;;;;;;;5029472;28;20045;-83
2022/11/16 08:30:08;;;;;;;81.75;23.27;;;;;;;;;;4997513;28;20444;-82
2022/11/16 08:32:36;;;;;;;84.57;23.30;;;;;;;;;;5025398;28;20571;-81
2022/11/16 08:35:02;;;;;;;78.45;23.48;;;;;;;;;;5013917;28;20529;-84
2022/11/16 08:37:27;;;;;;;77.75;21.83;;;;;;;;;;4996718;28;20042;-82
2022/11/16 08:39:53;;;;;;;85.53;23.92;;;;;;;;;;5011664;28;20146;-83
2022/11/16 08:42:39;;;;;;;83.88;24.13;;;;;;;;;;5012405;28;20032;-83
2022/11/16 08:45:05;;;;;;;73.00;22.63;;;;;;;;;;4914282;29;20443;-82
2022/11/16 08:47:31;;;;;;;73.63;22.35;;;;;;;;;;4905864;29;20035;-80
2022/11/16 08:49:58;;;;;;;78.25;24.17;;;;;;;;;;4873366;29;20039;-80
2022/11/16 08:52:24;;;;;;;74.70;23.63;;;;;;;;;;4902381;29;20108;-80
2022/11/16 08:54:50;;;;;;;72.40;23.42;;;;;;;;;;4891529;29;20080;-80
2022/11/16 08:57:15;;;;;;;76.28;23.15;;;;;;;;;;4893804;29;20051;-81
2022/11/16 08:59:40;;;;;;;71.22;23.45;;;;;;;;;;4912162;29;20049;-81
2022/11/16 09:02:06;;;;;;;67.80;22.52;;;;;;;;;;4881821;29;20042;-81
2022/11/16 09:04:31;;;;;;;68.50;21.70;;;;;;;;;;4895477;29;20036;-82
2022/11/16 09:06:56;;;;;;;66.10;22.13;;;;;;;;;;4883277;29;20569;-81
2022/11/16 09:09:22;;;;;;;70.10;22.67;;;;;;;;;;4878025;29;20052;-81
2022/11/16 09:11:50;;;;;;;67.90;22.35;;;;;;;;;;4899337;29;20400;-81
2022/11/16 09:14:16;;;;;;;68.13;22.73;;;;;;;;;;4878217;29;20567;-82
2022/11/16 09:16:41;;;;;;;66.88;21.05;;;;;;;;;;4886079;29;20047;-81
2022/11/16 09:19:06;;;;;;;69.88;21.02;;;;;;;;;;4880430;29;20320;-81
2022/11/16 09:21:32;;;;;;;64.63;20.20;;;;;;;;;;4907255;28;20038;-81
2022/11/16 09:23:57;;;;;;;63.80;19.95;;;;;;;;;;4996579;28;20026;-81
2022/11/16 09:26:23;;;;;;;69.25;20.00;;;;;;;;;;4999137;28;20034;-80
2022/11/16 09:28:57;;;;;;;54.63;19.08;;;;;;;;;;4989271;28;20041;-81
2022/11/16 09:31:26;;;;;;;65.13;19.50;;;;;;;;;;5004865;28;20033;-81
2022/11/16 09:33:52;;;;;;;51.75;17.67;;;;;;;;;;5015639;28;20548;-81
2022/11/16 09:36:20;;;;;;;58.28;19.40;;;;;;;;;;5013855;28;20065;-81
2022/11/16 09:38:46;;;;;;;60.00;19.67;;;;;;;;;;5023154;28;20645;-81
2022/11/16 09:41:14;;;;;;;52.33;17.98;;;;;;;;;;5023505;28;20117;-81
2022/11/16 09:44:04;;;;;;;53.75;17.60;;;;;;;;;;5009039;28;20402;-82
2022/11/16 09:46:35;;;;;;;50.53;17.20;;;;;;;;;;5043665;28;20049;-80
2022/11/16 09:49:06;;;;;;;57.22;17.17;;;;;;;;;;5014405;28;20152;-80
2022/11/16 09:51:32;;;;;;;48.08;16.65;;;;;;;;;;5010266;28;20041;-81
2022/11/16 09:54:05;;;;;;;45.60;16.08;;;;;;;;;;5014870;28;20033;-81
2022/11/16 09:56:34;;;;;;;43.05;14.77;;;;;;;;;;5026167;28;20025;-80
2022/11/16 09:59:08;;;;;;;40.97;15.95;;;;;;;;;;5000499;28;20080;-80
2022/11/16 10:01:40;;;;;;;42.10;15.98;;;;;;;;;;5027384;28;20053;-81
2022/11/16 10:04:17;;;;;;;33.28;13.40;;;;;;;;;;5027743;28;20132;-81
2022/11/16 10:06:56;;;;;;;34.75;13.32;;;;;;;;;;5012951;28;20515;-81
2022/11/16 10:09:22;;;;;;;32.28;12.18;;;;;;;;;;5006146;28;20106;-81
2022/11/16 10:12:08;;;;;;;27.85;12.10;;;;;;;;;;5010072;28;20508;-82
2022/11/16 10:15:03;;;;;;;27.67;12.02;;;;;;;;;;5001524;28;20044;-80
2022/11/16 10:17:53;;;;;;;32.25;12.77;;;;;;;;;;5024427;28;20037;-81
2022/11/16 10:20:22;;;;;;;29.02;11.38;;;;;;;;;;5025549;28;20500;-82
2022/11/16 10:22:54;;;;;;;23.02;10.80;;;;;;;;;;5025627;28;20044;-81
2022/11/16 10:25:21;;;;;;;27.08;12.20;;;;;;;;;;5043725;28;20115;-81
2022/11/16 10:28:05;;;;;;;19.60;9.43;;;;;;;;;;5012803;28;20033;-80
2022/11/16 10:30:33;;;;;;;24.33;10.90;;;;;;;;;;5006978;28;20496;-81
2022/11/16 10:33:05;;;;;;;24.25;11.00;;;;;;;;;;5026333;28;20037;-79
2022/11/16 10:35:44;;;;;;;22.65;10.45;;;;;;;;;;5013604;28;20041;-81
2022/11/16 10:38:22;;;;;;;26.75;11.70;;;;;;;;;;5006095;28;20037;-82
2022/11/16 10:41:02;;;;;;;24.23;11.60;;;;;;;;;;5013141;28;20030;-81
2022/11/16 10:43:30;;;;;;;27.70;11.75;;;;;;;;;;5009955;28;20562;-81
2022/11/16 10:46:14;;;;;;;25.92;11.32;;;;;;;;;;5019468;28;20659;-82
2022/11/16 10:48:54;;;;;;;25.92;11.82;;;;;;;;;;5037211;28;20038;-84
2022/11/16 10:51:20;;;;;;;28.33;12.07;;;;;;;;;;5026472;28;20037;-81
2022/11/16 10:53:45;;;;;;;23.83;10.25;;;;;;;;;;5001411;28;20391;-82
2022/11/16 10:56:45;;;;;;;24.13;11.23;;;;;;;;;;4991604;28;20362;-80
2022/11/16 10:59:20;;;;;;;23.73;10.68;;;;;;;;;;5001024;28;20045;-81
2022/11/16 11:01:51;;;;;;;26.77;10.43;;;;;;;;;;5013357;28;20033;-82
2022/11/16 11:04:26;;;;;;;24.02;10.13;;;;;;;;;;5029958;28;20413;-81
2022/11/16 11:06:52;;;;;;;23.63;10.60;;;;;;;;;;5028819;28;20148;-81
2022/11/16 11:09:31;;;;;;;22.90;9.85;;;;;;;;;;5050577;28;20120;-81
2022/11/16 11:15:11;;;;;;;22.52;10.98;;;;;;;;;;5032180;28;20036;-82
2022/11/16 11:17:44;;;;;;;24.63;11.65;;;;;;;;;;5033462;28;20049;-81
2022/11/16 11:20:15;;;;;;;25.20;11.18;;;;;;;;;;5030376;28;20520;-81
2022/11/16 11:23:10;;;;;;;26.98;12.10;;;;;;;;;;5033045;28;20061;-81
2022/11/16 11:25:40;;;;;;;25.00;10.90;;;;;;;;;;5030081;28;20037;-81
2022/11/16 11:28:15;;;;;;;21.45;10.43;;;;;;;;;;5028465;28;20555;-81
2022/11/16 11:30:50;;;;;;;23.08;10.77;;;;;;;;;;5040654;28;20513;-81
2022/11/16 11:33:16;;;;;;;24.88;11.15;;;;;;;;;;5004809;28;20548;-80
2022/11/16 11:35:42;;;;;;;22.90;11.30;;;;;;;;;;5016630;28;20044;-80
2022/11/16 11:38:13;;;;;;;26.35;12.65;;;;;;;;;;5032002;28;20049;-81
2022/11/16 11:40:40;;;;;;;23.48;11.30;;;;;;;;;;5011202;28;20370;-81
2022/11/16 11:43:21;;;;;;;22.52;10.85;;;;;;;;;;5030160;28;20118;-81
2022/11/16 11:46:11;;;;;;;23.25;11.30;;;;;;;;;;5010228;28;20037;-81
2022/11/16 11:48:50;;;;;;;21.30;11.45;;;;;;;;;;4981884;28;20125;-81
2022/11/16 11:51:34;;;;;;;23.00;11.07;;;;;;;;;;4997130;28;20120;-82
2022/11/16 11:54:02;;;;;;;23.50;11.25;;;;;;;;;;5012309;28;20404;-79
2022/11/16 11:56:30;;;;;;;22.15;10.90;;;;;;;;;;5025136;28;20036;-78
2022/11/16 11:58:56;;;;;;;23.55;11.32;;;;;;;;;;5010235;28;20045;-82
2022/11/16 12:01:31;;;;;;;22.25;10.82;;;;;;;;;;5030838;28;20500;-82
2022/11/16 12:04:09;;;;;;;21.17;10.63;;;;;;;;;;5015413;28;20088;-81
2022/11/16 12:06:41;;;;;;;23.58;11.18;;;;;;;;;;5030640;28;20038;-81
2022/11/16 12:09:18;;;;;;;22.38;11.52;;;;;;;;;;5046962;28;20132;-81
2022/11/16 12:12:00;;;;;;;23.83;11.77;;;;;;;;;;5031096;28;20037;-82
2022/11/16 12:14:48;;;;;;;21.95;10.75;;;;;;;;;;5010848;28;20063;-81
2022/11/16 12:17:53;;;;;;;23.50;11.18;;;;;;;;;;5030325;28;20029;-81
2022/11/16 12:20:41;;;;;;;24.33;11.75;;;;;;;;;;5013520;28;20572;-81
2022/11/16 12:23:24;;;;;;;20.23;10.05;;;;;;;;;;5029689;28;20025;-83
2022/11/16 12:26:24;;;;;;;21.40;11.55;;;;;;;;;;5018885;28;20041;-81
2022/11/16 12:28:52;;;;;;;25.58;11.73;;;;;;;;;;5030514;28;20041;-83
2022/11/16 12:31:17;;;;;;;22.38;11.45;;;;;;;;;;5012777;28;20372;-80
2022/11/16 12:34:06;;;;;;;22.83;11.50;;;;;;;;;;5030718;28;20112;-81
2022/11/16 12:36:34;;;;;;;22.00;10.93;;;;;;;;;;5030495;28;20094;-80
2022/11/16 12:39:09;;;;;;;25.00;12.57;;;;;;;;;;5030679;28;20049;-82
2022/11/16 12:41:37;;;;;;;26.17;11.52;;;;;;;;;;5030175;28;20041;-82
2022/11/16 12:44:08;;;;;;;22.60;11.38;;;;;;;;;;5043807;28;20642;-80
2022/11/16 12:47:00;;;;;;;24.35;11.80;;;;;;;;;;5029442;28;20493;-81
2022/11/16 12:49:51;;;;;;;23.60;11.85;;;;;;;;;;5028199;28;20408;-81
2022/11/16 12:52:25;;;;;;;23.98;11.57;;;;;;;;;;5026246;28;20041;-82
2022/11/16 12:55:12;;;;;;;23.90;12.10;;;;;;;;;;5028283;28;20033;-81
2022/11/16 12:57:49;;;;;;;25.58;12.27;;;;;;;;;;5010270;28;20045;-83
2022/11/16 13:00:16;;;;;;;23.98;12.10;;;;;;;;;;5029598;28;20033;-83
2022/11/16 13:02:58;;;;;;;25.87;12.90;;;;;;;;;;5005430;28;20393;-83
2022/11/16 13:05:36;;;;;;;26.35;12.50;;;;;;;;;;5009567;28;20115;-80
2022/11/16 13:08:24;;;;;;;24.85;12.15;;;;;;;;;;5029523;28;20033;-81
2022/11/16 13:11:18;;;;;;;27.70;12.35;;;;;;;;;;4964962;28;20062;-83
2022/11/16 13:13:44;;;;;;;29.02;12.02;;;;;;;;;;4952953;28;20038;-83
2022/11/16 13:16:15;;;;;;;24.67;12.40;;;;;;;;;;4972683;28;20529;-83
2022/11/16 13:18:42;;;;;;;24.13;13.20;;;;;;;;;;4937869;28;20132;-85
2022/11/16 13:21:25;;;;;;;24.55;11.57;;;;;;;;;;4944446;28;20121;-84
2022/11/16 13:23:54;;;;;;;25.48;12.10;;;;;;;;;;4947785;28;20106;-83
2022/11/16 13:26:44;;;;;;;21.50;10.77;;;;;;;;;;4958616;28;20038;-82
2022/11/16 13:29:26;;;;;;;20.60;11.27;;;;;;;;;;4956109;28;20407;-81
2022/11/16 13:31:58;;;;;;;21.75;11.20;;;;;;;;;;4966834;28;20398;-81
2022/11/16 13:34:26;;;;;;;21.73;11.50;;;;;;;;;;4973250;28;20144;-83
2022/11/16 13:36:52;;;;;;;23.95;11.82;;;;;;;;;;4963163;28;20038;-82
2022/11/16 13:39:19;;;;;;;21.85;11.45;;;;;;;;;;4972883;28;20077;-82
2022/11/16 13:41:47;;;;;;;23.52;10.73;;;;;;;;;;4969453;28;20039;-82
2022/11/16 13:44:13;;;;;;;21.38;11.23;;;;;;;;;;4970189;28;20069;-82
2022/11/16 13:46:46;;;;;;;29.65;15.40;;;;;;;;;;4958291;28;20143;-82
2022/11/16 13:49:47;;;;;;;20.75;11.73;;;;;;;;;;5006409;28;20129;-82
2022/11/16 13:52:13;;;;;;;21.25;10.85;;;;;;;;;;4997457;28;20393;-83
2022/11/16 13:54:43;;;;;;;18.55;10.57;;;;;;;;;;5009999;28;20033;-82
2022/11/16 13:57:17;;;;;;;20.63;11.10;;;;;;;;;;5026516;28;20037;-82
2022/11/16 13:59:43;;;;;;;20.67;10.88;;;;;;;;;;5025126;28;20067;-83
2022/11/16 14:02:37;;;;;;;22.90;11.80;;;;;;;;;;5008715;28;20085;-82
2022/11/16 14:05:11;;;;;;;18.27;10.45;;;;;;;;;;5011580;28;20037;-82
2022/11/16 14:07:41;;;;;;;21.70;11.10;;;;;;;;;;5026654;28;20584;-82
2022/11/16 14:10:08;;;;;;;20.85;11.48;;;;;;;;;;5029093;28;20125;-82
2022/11/16 14:12:37;;;;;;;23.25;11.52;;;;;;;;;;5014332;28;20041;-83
2022/11/16 14:15:12;;;;;;;18.08;10.32;;;;;;;;;;4996877;28;20036;-82
2022/11/16 14:18:07;;;;;;;18.90;10.23;;;;;;;;;;5038507;28;20047;-84
2022/11/16 14:20:36;;;;;;;19.67;10.18;;;;;;;;;;5016211;28;20033;-84
2022/11/16 14:23:20;;;;;;;19.27;10.23;;;;;;;;;;5027829;28;20030;-82
2022/11/16 14:26:17;;;;;;;19.25;10.18;;;;;;;;;;5024446;28;20034;-80
2022/11/16 14:29:10;;;;;;;19.50;9.68;;;;;;;;;;5014585;28;20527;-81
2022/11/16 14:31:56;;;;;;;19.83;9.68;;;;;;;;;;5009452;28;20081;-82
2022/11/16 14:34:26;;;;;;;17.48;9.65;;;;;;;;;;5013580;28;20041;-81
2022/11/16 14:36:51;;;;;;;16.15;9.48;;;;;;;;;;5006193;28;20033;-81
2022/11/16 14:39:23;;;;;;;21.05;10.52;;;;;;;;;;5014437;28;20637;-82
2022/11/16 14:41:48;;;;;;;20.02;11.00;;;;;;;;;;5030928;28;20090;-80
2022/11/16 14:44:25;;;;;;;18.48;10.60;;;;;;;;;;5015585;28;20527;-81
2022/11/16 14:46:51;;;;;;;18.85;9.60;;;;;;;;;;5008433;28;20033;-80
2022/11/16 14:49:17;;;;;;;17.42;9.52;;;;;;;;;;4998430;28;20041;-83
2022/11/16 14:51:48;;;;;;;16.63;9.65;;;;;;;;;;5011377;28;20025;-85
2022/11/16 14:54:19;;;;;;;17.95;9.60;;;;;;;;;;5014907;28;20049;-82
2022/11/16 14:57:03;;;;;;;16.85;9.38;;;;;;;;;;5030929;28;20466;-81
2022/11/16 14:59:30;;;;;;;17.98;9.38;;;;;;;;;;5008034;28;20042;-81
2022/11/16 15:01:55;;;;;;;17.92;10.07;;;;;;;;;;5005338;28;20041;-80
2022/11/16 15:04:23;;;;;;;20.15;9.80;;;;;;;;;;5015479;28;20037;-81
2022/11/16 15:06:56;;;;;;;19.95;9.55;;;;;;;;;;5031615;28;20064;-81
2022/11/16 15:09:32;;;;;;;16.98;9.52;;;;;;;;;;5014676;28;20046;-81
2022/11/16 15:14:52;;;;;;;19.65;9.95;;;;;;;;;;5033049;28;20083;-82
2022/11/16 15:17:21;;;;;;;18.77;9.48;;;;;;;;;;5012627;28;20044;-81
2022/11/16 15:20:00;;;;;;;21.55;10.80;;;;;;;;;;5013305;28;20496;-84
2022/11/16 15:22:29;;;;;;;18.33;10.13;;;;;;;;;;5014959;28;20048;-86
2022/11/16 15:24:59;;;;;;;19.42;10.15;;;;;;;;;;5011848;28;20043;-85
2022/11/16 15:27:38;;;;;;;20.13;11.20;;;;;;;;;;5028139;28;20037;-87